Time;durP1;ratioP1;P1;durP2;ratioP2;P2;SDS_P1;SDS_P2;PMS_P1;PMS_P2;Temp;Humidity;BMP_temperature;BMP_pressure;BME280_temperature;BME280_humidity;BME280_pressure;Samples;Min_cycle;Max_cycle;Signal;HPM_P1;HPM_P2
2021/09/26 00:01:17;;;;;;;6.35;4.10;;;;;;;14.71;97.89;145870.19;1853661;77;22507;-66
2021/09/26 00:03:52;;;;;;;6.72;3.83;;;;;;;14.69;97.63;145865.14;1835073;77;22132;-68
2021/09/26 00:06:47;;;;;;;7.90;4.17;;;;;;;14.66;97.32;145858.84;1834948;77;22223;-65
2021/09/26 00:09:22;;;;;;;8.20;4.12;;;;;;;14.64;97.10;145852.56;1835062;77;22132;-71
2021/09/26 00:12:16;;;;;;;7.60;3.58;;;;;;;14.60;96.89;145842.47;1835013;77;22125;-69
2021/09/26 00:14:52;;;;;;;7.10;4.33;;;;;;;14.52;96.86;145824.81;1834993;77;22570;-65
2021/09/26 00:17:46;;;;;;;8.43;3.67;;;;;;;14.47;97.03;145810.97;1834997;77;22206;-68
2021/09/26 00:20:22;;;;;;;7.55;4.10;;;;;;;14.42;97.21;145799.64;1835073;77;22128;-66
2021/09/26 00:23:18;;;;;;;8.00;3.62;;;;;;;14.38;97.45;145789.61;1835042;77;22555;-63
2021/09/26 00:25:55;;;;;;;5.90;3.85;;;;;;;14.34;97.74;145779.53;1835048;77;22132;-59
2021/09/26 00:28:49;;;;;;;6.37;4.35;;;;;;;14.31;97.96;145771.98;1834897;77;22258;-63
2021/09/26 00:31:30;;;;;;;8.90;4.53;;;;;;;14.28;98.16;145764.45;1834148;77;22606;-60
2021/09/26 00:34:24;;;;;;;8.35;4.37;;;;;;;14.28;98.47;145764.45;1853637;77;22160;-69
2021/09/26 00:36:59;;;;;;;7.12;4.03;;;;;;;14.29;98.63;145766.94;1879466;76;22108;-62
2021/09/26 00:39:54;;;;;;;11.22;4.53;;;;;;;14.31;98.84;145771.98;1834682;77;22201;-70
2021/09/26 00:42:29;;;;;;;9.28;4.28;;;;;;;14.33;98.91;145777.03;1853578;77;22175;-66
2021/09/26 00:45:06;;;;;;;9.65;5.70;;;;;;;14.35;98.96;145782.06;1853522;77;22140;-63
2021/09/26 00:47:41;;;;;;;7.22;3.90;;;;;;;14.36;98.87;145784.56;1834999;77;22547;-69
2021/09/26 00:50:36;;;;;;;9.80;4.33;;;;;;;14.36;98.90;145784.56;1835058;77;22602;-64
2021/09/26 00:53:11;;;;;;;10.40;4.70;;;;;;;14.36;98.91;145783.31;1819537;77;28385;-64
2021/09/26 00:55:47;;;;;;;7.08;4.00;;;;;;;14.43;98.78;145802.19;1844225;77;22159;-58
2021/09/26 00:58:22;;;;;;;7.60;3.72;;;;;;;14.44;98.57;145803.44;1836209;77;22215;-67
2021/09/26 01:01:22;;;;;;;8.65;4.92;;;;;;;14.43;98.51;145800.94;1854078;77;22233;-66
2021/09/26 01:04:03;;;;;;;10.60;4.87;;;;;;;14.44;98.42;145804.69;1834233;77;22205;-66
2021/09/26 01:07:02;;;;;;;9.03;4.70;;;;;;;14.44;98.29;145803.44;1834168;77;22626;-61
2021/09/26 01:10:11;;;;;;;5.53;3.77;;;;;;;14.42;98.29;145799.64;1853528;77;22562;-67
2021/09/26 01:12:52;;;;;;;7.47;4.05;;;;;;;14.40;98.31;145794.66;1835041;77;22572;-69
2021/09/26 01:16:26;;;;;;;8.43;4.33;;;;;;;14.42;98.35;145799.64;1834965;77;22128;-62
2021/09/26 01:19:22;;;;;;;9.05;4.33;;;;;;;14.46;98.29;145808.47;1835046;77;22582;-65
2021/09/26 01:22:34;;;;;;;7.50;4.37;;;;;;;14.44;98.23;145804.69;1834958;77;22582;-61
2021/09/26 01:25:59;;;;;;;10.72;4.62;;;;;;;14.41;98.31;145795.89;1834859;77;22606;-68
2021/09/26 01:28:56;;;;;;;8.00;4.22;;;;;;;14.36;98.33;145784.56;1834981;77;22192;-70
2021/09/26 01:31:52;;;;;;;9.90;4.67;;;;;;;14.33;98.45;145777.03;1834218;77;22181;-61
2021/09/26 01:34:52;;;;;;;12.25;5.20;;;;;;;14.30;98.56;145769.48;1853541;77;22153;-68
2021/09/26 01:37:44;;;;;;;6.67;4.17;;;;;;;14.29;98.62;145766.94;1819398;77;28498;-69
2021/09/26 01:40:57;;;;;;;11.68;4.15;;;;;;;14.29;98.57;145766.94;1835039;77;22121;-62
2021/09/26 01:43:44;;;;;;;10.68;4.28;;;;;;;14.22;98.52;145750.63;1853555;77;22129;-64
2021/09/26 01:46:44;;;;;;;11.12;4.42;;;;;;;14.16;98.57;145734.25;1853496;77;22135;-59
2021/09/26 01:49:50;;;;;;;9.23;4.03;;;;;;;14.07;98.58;145714.14;1853558;77;22180;-58
2021/09/26 01:52:47;;;;;;;9.93;4.60;;;;;;;14.01;98.51;145699.02;1834910;77;22147;-61
2021/09/26 01:55:25;;;;;;;7.30;3.95;;;;;;;13.95;98.57;145682.70;1835097;77;22132;-62
2021/09/26 01:58:21;;;;;;;8.15;4.75;;;;;;;13.88;98.69;145666.34;1835069;77;22164;-63
2021/09/26 02:01:17;;;;;;;8.63;4.40;;;;;;;13.83;98.90;145653.77;1819384;77;27979;-62
2021/09/26 02:03:53;;;;;;;6.90;4.08;;;;;;;13.83;98.93;145653.77;1834994;77;22132;-66
2021/09/26 02:06:29;;;;;;;8.83;4.42;;;;;;;13.80;98.90;145646.22;1835016;77;22129;-63
2021/09/26 02:09:24;;;;;;;9.15;5.12;;;;;;;13.75;99.03;145633.66;1853488;77;22135;-72
2021/09/26 02:11:59;;;;;;;9.08;4.28;;;;;;;13.71;99.06;145623.58;1819519;77;27993;-64
2021/09/26 02:14:54;;;;;;;10.32;4.60;;;;;;;13.68;99.16;145618.53;1853605;77;22131;-60
2021/09/26 02:17:31;;;;;;;9.90;4.47;;;;;;;13.63;99.28;145604.72;1835024;77;22147;-60
2021/09/26 02:20:26;;;;;;;8.23;4.35;;;;;;;13.55;99.55;145584.61;1834931;77;22136;-65
2021/09/26 02:23:02;;;;;;;8.45;4.62;;;;;;;13.52;99.83;145577.08;1837810;77;38242;-63
2021/09/26 02:25:39;;;;;;;11.05;4.28;;;;;;;13.56;99.86;145587.11;1819411;77;38743;-70
2021/09/26 02:28:35;;;;;;;11.88;4.33;;;;;;;13.61;99.79;145599.67;1853517;77;22574;-61
2021/09/26 02:31:12;;;;;;;12.30;3.98;;;;;;;13.57;99.77;145590.89;1853463;77;22174;-64
2021/09/26 02:33:53;;;;;;;11.35;4.30;;;;;;;13.52;99.74;145578.33;1834199;77;22152;-70
2021/09/26 02:36:46;;;;;;;10.48;4.30;;;;;;;13.46;99.76;145564.50;1853513;77;22147;-64
2021/09/26 02:39:22;;;;;;;11.28;4.70;;;;;;;13.40;99.93;145548.16;1819252;77;27970;-64
2021/09/26 02:42:20;;;;;;;9.40;4.22;;;;;;;13.39;99.99;145545.66;1819324;77;27998;-61
2021/09/26 02:45:33;;;;;;;12.60;4.65;;;;;;;13.39;99.97;145546.91;1834913;77;22168;-63
2021/09/26 02:48:29;;;;;;;7.28;4.00;;;;;;;13.29;99.94;145521.75;1835101;77;22157;-59
2021/09/26 02:51:24;;;;;;;9.55;4.50;;;;;;;13.20;100.00;145500.38;1834932;77;22136;-63
2021/09/26 02:54:09;;;;;;;12.43;4.62;;;;;;;13.14;100.00;145485.25;1819412;77;27995;-63
2021/09/26 02:56:45;;;;;;;12.43;4.78;;;;;;;13.13;100.00;145482.75;1785580;79;28060;-62
2021/09/26 02:59:41;;;;;;;12.50;4.20;;;;;;;13.14;100.00;145485.25;1834964;77;22583;-61
2021/09/26 03:02:16;;;;;;;11.05;4.00;;;;;;;13.07;100.00;145467.66;1819431;77;27998;-62
2021/09/26 03:04:50;;;;;;;8.68;4.20;;;;;;;13.08;100.00;145470.19;1834950;77;22132;-64
2021/09/26 03:07:31;;;;;;;13.75;4.47;;;;;;;13.02;100.00;145455.08;1853558;77;22558;-62
2021/09/26 03:10:08;;;;;;;11.60;4.35;;;;;;;12.98;100.00;145445.06;1835016;77;22132;-68
2021/09/26 03:13:03;;;;;;;7.90;3.87;;;;;;;12.95;100.00;145437.48;1834943;77;22542;-61
2021/09/26 03:15:39;;;;;;;10.65;4.35;;;;;;;12.93;100.00;145432.50;1837886;77;28224;-67
2021/09/26 03:18:14;;;;;;;9.98;4.65;;;;;;;12.94;100.00;145436.23;1832550;77;38315;-70
2021/09/26 03:21:08;;;;;;;9.38;4.37;;;;;;;12.99;100.00;145448.80;1853481;77;22589;-61
2021/09/26 03:23:43;;;;;;;9.73;3.98;;;;;;;12.94;100.00;145434.98;1853521;77;22140;-71
2021/09/26 03:26:17;;;;;;;10.23;4.95;;;;;;;12.91;100.00;145427.47;1835011;77;22144;-62
2021/09/26 03:28:53;;;;;;;8.68;4.28;;;;;;;12.86;100.00;145414.89;1835008;77;22543;-64
2021/09/26 03:31:28;;;;;;;12.63;5.12;;;;;;;12.85;100.00;145412.34;1837777;77;38296;-65
2021/09/26 03:34:21;;;;;;;13.15;4.78;;;;;;;12.92;100.00;145431.20;1835477;77;22230;-64
2021/09/26 03:36:56;;;;;;;15.05;4.50;;;;;;;12.94;100.00;145434.98;1835629;77;22152;-62
2021/09/26 03:39:32;;;;;;;10.53;4.62;;;;;;;12.93;100.00;145433.73;1835469;77;22129;-69
2021/09/26 03:42:28;;;;;;;10.15;4.67;;;;;;;12.90;100.00;145424.92;1834963;77;20449;-67
2021/09/26 03:45:05;;;;;;;10.00;4.67;;;;;;;12.85;100.00;145413.66;1835054;77;22132;-66
2021/09/26 03:47:59;;;;;;;10.20;4.47;;;;;;;12.80;100.00;145401.08;1835065;77;22124;-67
2021/09/26 03:50:34;;;;;;;13.30;4.60;;;;;;;12.75;100.00;145389.77;1853633;77;22155;-65
2021/09/26 03:53:28;;;;;;;11.57;5.25;;;;;;;12.71;100.00;145378.45;1834970;77;22563;-67
2021/09/26 03:56:05;;;;;;;8.53;4.47;;;;;;;12.70;100.00;145375.95;1837815;77;27978;-64
2021/09/26 03:58:59;;;;;;;10.63;5.00;;;;;;;12.73;100.00;145384.73;1853563;77;22131;-69
2021/09/26 04:01:34;;;;;;;9.45;4.80;;;;;;;12.74;100.00;145385.98;1835025;77;22133;-64
2021/09/26 04:04:09;;;;;;;10.08;4.60;;;;;;;12.76;100.00;145391.02;1853542;77;22131;-71
2021/09/26 04:07:04;;;;;;;13.43;4.90;;;;;;;12.77;100.00;145394.80;1835008;77;22563;-63
2021/09/26 04:09:39;;;;;;;9.95;4.58;;;;;;;12.78;100.00;145397.30;1834982;77;22132;-66
2021/09/26 04:12:33;;;;;;;11.83;5.28;;;;;;;12.75;100.00;145389.77;1853457;77;22132;-67
2021/09/26 04:15:09;;;;;;;11.03;4.97;;;;;;;12.72;100.00;145382.23;1853537;77;22132;-66
2021/09/26 04:18:03;;;;;;;10.30;4.40;;;;;;;12.71;100.00;145379.69;1834937;77;22140;-63
2021/09/26 04:20:44;;;;;;;12.75;4.87;;;;;;;12.73;100.00;145383.48;1834070;77;22185;-65
2021/09/26 04:23:37;;;;;;;11.83;4.83;;;;;;;12.90;100.00;145426.22;1834908;77;22144;-61
2021/09/26 04:26:31;;;;;;;9.40;5.03;;;;;;;12.97;100.00;145442.52;1853500;77;22132;-66
2021/09/26 04:29:07;;;;;;;12.65;4.33;;;;;;;13.04;100.00;145460.13;1853691;77;22120;-63
2021/09/26 04:32:00;;;;;;;10.98;5.05;;;;;;;13.08;100.00;145470.19;1834903;77;22583;-70
2021/09/26 04:34:35;;;;;;;12.07;5.53;;;;;;;13.09;99.84;145472.69;1835006;77;22125;-68
2021/09/26 04:37:11;;;;;;;15.48;5.10;;;;;;;13.09;99.64;145471.44;1834950;77;22165;-66
2021/09/26 04:39:46;;;;;;;9.53;4.92;;;;;;;13.08;99.59;145470.19;1834976;77;22156;-65
2021/09/26 04:42:21;;;;;;;25.72;4.95;;;;;;;13.04;99.56;145461.37;1835019;77;22536;-64
2021/09/26 04:45:15;;;;;;;15.30;5.20;;;;;;;13.02;99.65;145455.08;1834982;77;22133;-65
2021/09/26 04:48:11;;;;;;;9.63;4.95;;;;;;;12.99;99.63;145447.56;1831988;77;22238;-69
2021/09/26 04:51:01;;;;;;;12.30;5.08;;;;;;;13.01;99.73;145452.59;1853533;77;22611;-68
2021/09/26 04:54:01;;;;;;;11.20;4.28;;;;;;;13.14;99.54;145485.25;1853471;77;22192;-63
2021/09/26 04:56:55;;;;;;;13.15;5.33;;;;;;;13.28;98.96;145517.97;1835092;77;22164;-67
2021/09/26 04:59:49;;;;;;;14.30;5.45;;;;;;;13.29;98.40;145520.52;1834987;77;22136;-66
2021/09/26 05:02:24;;;;;;;11.22;5.22;;;;;;;13.29;98.31;145521.75;1800751;79;22156;-62
2021/09/26 05:05:00;;;;;;;12.25;4.78;;;;;;;13.31;98.06;145525.55;1819357;77;28051;-67
2021/09/26 05:07:53;;;;;;;9.05;4.25;;;;;;;13.32;97.84;145528.05;1834966;77;22129;-67
2021/09/26 05:10:29;;;;;;;10.90;4.58;;;;;;;13.24;97.83;145510.39;1835034;77;22132;-62
2021/09/26 05:13:04;;;;;;;15.28;5.72;;;;;;;13.24;97.84;145509.14;1835004;77;22600;-64
2021/09/26 05:15:45;;;;;;;14.75;4.50;;;;;;;13.24;97.64;145510.39;1853527;77;22157;-64
2021/09/26 05:18:38;;;;;;;13.70;4.50;;;;;;;13.24;97.28;145510.39;1853491;77;22136;-65
2021/09/26 05:21:14;;;;;;;12.35;4.85;;;;;;;13.24;97.27;145510.39;1834756;77;22136;-62
2021/09/26 05:24:09;;;;;;;8.90;4.08;;;;;;;13.40;96.99;145548.16;1817173;77;22559;-66
2021/09/26 05:26:44;;;;;;;12.45;5.03;;;;;;;13.44;96.47;145558.22;1818925;77;22168;-66
2021/09/26 05:29:18;;;;;;;11.85;4.42;;;;;;;13.47;95.95;145565.75;1821335;77;22203;-62
2021/09/26 05:31:53;;;;;;;10.88;4.53;;;;;;;13.52;95.73;145578.33;1815286;77;22151;-61
2021/09/26 05:34:29;;;;;;;15.75;5.40;;;;;;;13.57;95.27;145589.66;1827614;77;22167;-61
2021/09/26 05:37:05;;;;;;;15.60;4.78;;;;;;;13.59;94.99;145594.69;1834605;77;22164;-66
2021/09/26 05:39:59;;;;;;;14.33;5.00;;;;;;;13.56;94.74;145587.11;1824923;77;22171;-64
2021/09/26 05:42:33;;;;;;;13.15;4.90;;;;;;;13.51;94.84;145574.53;1853615;77;22593;-64
2021/09/26 05:45:14;;;;;;;13.65;5.10;;;;;;;13.44;95.03;145559.47;1843706;77;22176;-65
2021/09/26 05:47:49;;;;;;;11.45;4.35;;;;;;;13.42;94.56;145553.19;1817221;77;22122;-70
2021/09/26 05:50:25;;;;;;;13.18;5.15;;;;;;;13.39;94.26;145545.66;1834819;77;27981;-66
2021/09/26 05:53:00;;;;;;;15.18;5.12;;;;;;;13.41;94.54;145550.69;1827105;78;22227;-65
2021/09/26 05:55:55;;;;;;;11.00;4.85;;;;;;;13.46;94.36;145564.50;1820045;77;22574;-66
2021/09/26 05:58:30;;;;;;;12.80;4.35;;;;;;;13.49;93.87;145569.55;1815630;77;22172;-67
2021/09/26 06:01:04;;;;;;;15.75;4.55;;;;;;;13.53;93.67;145579.56;1823242;77;22139;-73
2021/09/26 06:03:41;;;;;;;14.55;5.15;;;;;;;13.55;92.52;145585.86;1834197;77;22148;-59
2021/09/26 06:06:41;;;;;;;13.03;4.92;;;;;;;13.90;92.02;145671.37;1817272;77;22196;-64
2021/09/26 06:09:17;;;;;;;12.75;4.03;;;;;;;14.32;89.10;145774.48;1821345;77;22192;-64
2021/09/26 06:12:12;;;;;;;13.18;4.55;;;;;;;14.39;87.83;145790.84;1818891;77;22219;-62
2021/09/26 06:15:13;;;;;;;13.62;4.15;;;;;;;14.45;86.97;145807.22;1822585;77;22216;-63
2021/09/26 06:18:08;;;;;;;10.60;4.15;;;;;;;14.93;85.19;145924.27;1853486;77;22140;-63
2021/09/26 06:20:43;;;;;;;16.25;3.92;;;;;;;16.24;82.38;146247.94;1853515;77;22136;-64
2021/09/26 06:23:18;;;;;;;9.78;3.80;;;;;;;18.06;73.91;146694.27;1834971;77;22120;-62
2021/09/26 06:25:53;;;;;;;13.43;4.10;;;;;;;18.12;74.34;146709.44;1853533;77;22128;-63
2021/09/26 06:28:47;;;;;;;11.35;4.22;;;;;;;18.00;72.81;146681.66;1840533;77;22230;-65
2021/09/26 06:31:48;;;;;;;13.05;4.22;;;;;;;17.60;72.80;146580.72;1830791;77;22270;-64
2021/09/26 06:34:31;;;;;;;13.65;4.17;;;;;;;17.36;73.67;146522.72;1807613;77;22188;-61
2021/09/26 06:37:25;;;;;;;16.75;5.30;;;;;;;17.54;72.76;146568.09;1835021;77;22136;-65
2021/09/26 06:40:18;;;;;;;12.20;4.22;;;;;;;17.92;72.14;146660.23;1835021;77;22136;-63
2021/09/26 06:43:18;;;;;;;10.82;3.62;;;;;;;18.16;69.85;146719.50;1834065;77;22187;-61
2021/09/26 06:45:53;;;;;;;16.62;4.45;;;;;;;19.06;67.36;146941.69;1823513;77;22171;-65
2021/09/26 06:48:34;;;;;;;13.53;3.85;;;;;;;20.75;63.00;147358.59;1822935;77;22295;-62
2021/09/26 06:51:09;;;;;;;8.38;3.45;;;;;;;22.15;57.27;147705.11;1834897;77;22607;-63
2021/09/26 06:53:45;;;;;;;12.18;4.53;;;;;;;22.70;55.37;147841.83;1853549;77;22169;-65
2021/09/26 06:56:40;;;;;;;12.35;4.10;;;;;;;23.42;53.34;148019.09;1827362;77;28311;-68
2021/09/26 06:59:15;;;;;;;15.23;4.03;;;;;;;22.93;51.29;147897.53;1834988;77;22148;-63
2021/09/26 07:02:12;;;;;;;11.80;4.33;;;;;;;22.11;52.77;147696.27;1812477;77;28389;-61
2021/09/26 07:04:50;;;;;;;9.68;3.22;;;;;;;22.58;51.95;147811.44;1834334;77;22200;-63
2021/09/26 07:07:46;;;;;;;10.35;3.33;;;;;;;23.36;50.39;148003.92;1834463;77;22647;-61
2021/09/26 07:10:41;;;;;;;10.30;4.00;;;;;;;24.02;47.79;148168.59;1819444;77;28016;-60
2021/09/26 07:13:22;;;;;;;10.68;4.03;;;;;;;24.46;46.71;148276.33;1834173;77;22158;-66
2021/09/26 07:16:17;;;;;;;8.38;2.95;;;;;;;24.74;45.37;148346.02;1835060;77;22157;-66
2021/09/26 07:19:15;;;;;;;8.78;3.50;;;;;;;25.23;44.25;148467.73;1835388;77;22574;-63
2021/09/26 07:22:09;;;;;;;10.08;3.52;;;;;;;25.45;43.23;148521.02;1835285;77;22164;-63
2021/09/26 07:24:44;;;;;;;10.25;3.25;;;;;;;25.50;43.46;148533.69;1853581;77;22057;-67
2021/09/26 07:27:25;;;;;;;11.48;3.67;;;;;;;25.64;43.13;148567.91;1834185;77;22570;-63
2021/09/26 07:30:26;;;;;;;8.68;3.45;;;;;;;25.75;42.02;148595.83;1853474;77;22204;-64
2021/09/26 07:33:00;;;;;;;10.97;3.83;;;;;;;25.50;41.84;148534.94;1819560;77;27982;-63
2021/09/26 07:35:45;;;;;;;13.80;3.85;;;;;;;25.36;42.41;148499.42;1834113;77;22155;-65
2021/09/26 07:38:39;;;;;;;15.03;3.35;;;;;;;23.88;45.25;148133.11;1834908;77;22081;-62
2021/09/26 07:41:33;;;;;;;12.78;4.37;;;;;;;22.64;47.84;147825.34;1853535;77;22270;-65
2021/09/26 07:44:33;;;;;;;10.78;3.62;;;;;;;21.57;50.13;147560.91;1834066;77;22608;-62
2021/09/26 07:47:08;;;;;;;10.55;3.60;;;;;;;21.36;51.33;147510.28;1853594;77;22321;-60
2021/09/26 07:49:49;;;;;;;11.33;3.77;;;;;;;22.18;49.60;147712.69;1853570;77;22188;-62
2021/09/26 07:52:26;;;;;;;11.45;3.70;;;;;;;22.94;47.35;147900.03;1819318;77;28454;-59
2021/09/26 07:55:20;;;;;;;9.25;3.45;;;;;;;22.02;48.41;147673.48;1834972;77;22286;-63
2021/09/26 07:57:55;;;;;;;11.95;3.92;;;;;;;22.06;48.50;147682.38;1819407;77;27981;-61
2021/09/26 08:00:30;;;;;;;11.45;3.83;;;;;;;22.82;47.52;147870.95;1853634;77;22159;-61
2021/09/26 08:03:25;;;;;;;10.48;3.40;;;;;;;23.19;47.14;147963.38;1834962;77;22132;-58
2021/09/26 08:06:08;;;;;;;13.32;3.87;;;;;;;22.82;46.28;147869.66;1853503;77;22203;-65
2021/09/26 08:09:03;;;;;;;13.83;3.85;;;;;;;21.77;47.31;147611.50;1853486;77;22547;-61
2021/09/26 08:11:40;;;;;;;8.13;2.58;;;;;;;21.75;47.29;147606.44;1834736;77;22640;-61
2021/09/26 08:14:21;;;;;;;12.45;3.20;;;;;;;21.39;48.54;147516.66;1834172;77;22164;-58
2021/09/26 08:16:56;;;;;;;9.65;3.00;;;;;;;20.88;49.56;147391.44;1853609;77;22558;-62
2021/09/26 08:19:36;;;;;;;10.68;2.85;;;;;;;20.28;50.49;147242.31;1834761;77;22163;-61
2021/09/26 08:22:10;;;;;;;13.78;4.33;;;;;;;20.67;49.85;147339.63;1834951;77;22177;-63
2021/09/26 08:25:07;;;;;;;11.85;2.83;;;;;;;21.26;48.52;147485.00;1843342;78;22128;-62
2021/09/26 08:27:42;;;;;;;10.15;3.25;;;;;;;21.73;45.65;147601.41;1834950;77;22241;-63
2021/09/26 08:30:19;;;;;;;12.33;3.47;;;;;;;21.61;45.93;147571.05;1825692;77;22283;-63
2021/09/26 08:32:53;;;;;;;10.55;3.72;;;;;;;21.00;47.66;147421.78;1792265;77;28412;-63
2021/09/26 08:35:28;;;;;;;10.20;3.27;;;;;;;20.61;49.06;147324.48;1854717;77;22204;-64
2021/09/26 08:38:24;;;;;;;13.25;4.12;;;;;;;20.50;49.86;147297.88;1819520;77;28005;-58
2021/09/26 08:41:24;;;;;;;12.23;3.52;;;;;;;21.00;48.51;147421.78;1834138;77;22177;-61
2021/09/26 08:43:59;;;;;;;12.73;3.85;;;;;;;20.84;48.15;147380.06;1819269;77;27982;-60
2021/09/26 08:46:40;;;;;;;10.90;3.08;;;;;;;20.67;48.29;147338.38;1834050;77;22201;-62
2021/09/26 08:49:35;;;;;;;12.78;3.62;;;;;;;20.59;48.71;147320.67;1787794;79;22219;-57
2021/09/26 08:52:36;;;;;;;9.80;3.12;;;;;;;20.50;49.24;147297.88;1834092;77;22218;-62
2021/09/26 08:55:14;;;;;;;10.38;3.58;;;;;;;19.91;48.95;147152.58;1819293;77;28408;-61
2021/09/26 08:57:55;;;;;;;13.35;3.37;;;;;;;19.67;49.50;147093.23;1834196;77;22152;-61
2021/09/26 09:00:49;;;;;;;9.58;3.22;;;;;;;19.82;49.79;147129.88;1834953;77;22642;-63
2021/09/26 09:03:50;;;;;;;12.23;3.40;;;;;;;19.86;49.73;147138.69;1853782;77;22641;-61
2021/09/26 09:06:44;;;;;;;10.60;3.27;;;;;;;19.86;49.84;147139.95;1834910;77;22173;-61
2021/09/26 09:09:59;;;;;;;12.23;3.35;;;;;;;19.65;50.13;147086.88;1834946;77;22160;-60
2021/09/26 09:12:38;;;;;;;12.30;3.33;;;;;;;19.35;50.81;147012.38;1834919;77;22124;-60
2021/09/26 09:15:32;;;;;;;11.33;3.02;;;;;;;19.05;51.42;146939.13;1834835;77;22144;-61
2021/09/26 09:18:50;;;;;;;13.68;3.75;;;;;;;18.75;52.37;146865.95;1819083;77;28447;-59
2021/09/26 09:21:28;;;;;;;11.95;3.17;;;;;;;18.63;52.37;146835.61;1834972;77;22133;-61
2021/09/26 09:24:25;;;;;;;15.43;4.50;;;;;;;18.35;53.20;146767.47;1818570;77;28137;-60
2021/09/26 09:27:12;;;;;;;17.92;4.20;;;;;;;18.15;54.13;146717.00;1853480;77;22589;-62
2021/09/26 09:30:09;;;;;;;11.97;3.62;;;;;;;17.95;54.89;146669.03;1853340;77;22416;-62
2021/09/26 09:32:55;;;;;;;10.45;3.02;;;;;;;17.68;54.81;146600.88;1834025;77;22188;-61
2021/09/26 09:35:54;;;;;;;13.53;2.95;;;;;;;17.42;54.91;146537.83;1834935;77;22160;-62
2021/09/26 09:38:57;;;;;;;14.83;3.20;;;;;;;17.26;54.97;146497.52;1853491;77;22164;-61
2021/09/26 09:41:53;;;;;;;13.68;3.85;;;;;;;17.22;55.94;146487.41;1834783;77;22155;-60
2021/09/26 09:44:48;;;;;;;12.58;3.25;;;;;;;17.25;56.42;146494.97;1853366;77;22183;-61
2021/09/26 09:48:10;;;;;;;11.28;2.90;;;;;;;17.16;54.77;146473.55;1834990;77;22168;-60
2021/09/26 09:51:02;;;;;;;11.85;3.22;;;;;;;17.04;55.64;146444.53;1853535;77;22128;-64
2021/09/26 09:53:46;;;;;;;9.78;2.98;;;;;;;17.10;55.66;146459.69;1853922;77;22202;-73
2021/09/26 09:56:45;;;;;;;14.63;3.40;;;;;;;17.27;55.88;146500.02;1834701;77;22261;-64
2021/09/26 09:59:33;;;;;;;10.80;3.30;;;;;;;17.38;55.95;146526.47;1834950;77;22133;-64
2021/09/26 10:02:34;;;;;;;14.28;3.15;;;;;;;17.43;55.15;146540.37;1835020;77;22188;-61
2021/09/26 10:05:33;;;;;;;9.68;2.85;;;;;;;17.47;55.85;146550.44;1853657;77;22128;-71
2021/09/26 10:08:08;;;;;;;13.50;3.70;;;;;;;17.43;55.47;146540.37;1835085;77;22125;-59
2021/09/26 10:11:09;;;;;;;13.55;3.35;;;;;;;17.49;56.50;146555.50;1834239;77;22132;-65
2021/09/26 10:13:45;;;;;;;10.08;2.98;;;;;;;17.54;55.52;146568.09;1833654;77;22227;-59
2021/09/26 10:16:40;;;;;;;10.60;3.37;;;;;;;17.63;53.83;146588.27;1836455;77;27985;-66
2021/09/26 10:19:24;;;;;;;12.05;3.35;;;;;;;17.64;53.54;146590.81;1852798;77;22255;-66
2021/09/26 10:22:20;;;;;;;10.10;2.85;;;;;;;17.73;53.67;146613.48;1834208;77;22227;-68
2021/09/26 10:25:14;;;;;;;12.15;3.37;;;;;;;17.77;52.79;146623.59;1818830;77;28007;-70
2021/09/26 10:27:52;;;;;;;15.25;3.25;;;;;;;17.84;53.27;146641.31;1853658;77;22155;-67
2021/09/26 10:30:46;;;;;;;10.50;2.77;;;;;;;17.94;53.06;146665.28;1843383;77;22120;-64
2021/09/26 10:33:21;;;;;;;7.83;2.45;;;;;;;18.02;52.88;146684.20;1835032;77;22124;-69
2021/09/26 10:36:36;;;;;;;11.85;3.35;;;;;;;18.08;51.82;146700.58;1839826;77;22235;-63
2021/09/26 10:39:13;;;;;;;12.50;2.55;;;;;;;18.21;52.56;146733.36;1835142;77;22535;-62
2021/09/26 10:42:17;;;;;;;12.43;3.65;;;;;;;18.25;52.21;146742.22;1835029;77;22143;-58
2021/09/26 10:45:02;;;;;;;8.20;2.87;;;;;;;18.27;52.19;146747.28;1853561;77;22123;-64
2021/09/26 10:47:39;;;;;;;9.83;2.85;;;;;;;18.25;52.44;146740.97;1835024;77;22124;-68
2021/09/26 10:50:15;;;;;;;9.35;2.83;;;;;;;18.29;52.24;146752.28;1835007;77;22124;-67
2021/09/26 10:53:14;;;;;;;9.08;3.08;;;;;;;18.34;52.32;146764.95;1832478;77;28012;-69
2021/09/26 10:55:49;;;;;;;11.60;3.37;;;;;;;18.48;51.92;146799.00;1835005;77;22563;-64
2021/09/26 10:58:56;;;;;;;7.53;2.35;;;;;;;18.49;51.77;146800.25;1834894;77;22132;-68
2021/09/26 11:01:51;;;;;;;10.82;3.10;;;;;;;18.50;51.54;146802.81;1848179;77;22199;-67
2021/09/26 11:04:45;;;;;;;8.60;2.20;;;;;;;18.52;51.46;146807.81;1835121;77;22144;-70
2021/09/26 11:07:45;;;;;;;10.93;3.52;;;;;;;18.62;51.48;146834.34;1834807;77;22574;-64
2021/09/26 11:10:40;;;;;;;11.00;3.25;;;;;;;18.68;51.42;146848.22;1835021;77;22124;-57
2021/09/26 11:13:38;;;;;;;9.25;2.35;;;;;;;18.75;50.84;146865.95;1834925;77;22854;-67
2021/09/26 11:16:59;;;;;;;10.85;2.80;;;;;;;18.90;50.17;146901.25;1853581;77;22135;-70
2021/09/26 11:19:42;;;;;;;12.33;3.10;;;;;;;19.05;49.72;146939.13;1853475;77;22155;-61
2021/09/26 11:22:23;;;;;;;8.70;2.40;;;;;;;19.11;48.72;146954.30;1834141;77;22611;-64
2021/09/26 11:25:16;;;;;;;12.35;2.72;;;;;;;18.94;48.80;146912.63;1853555;77;22135;-76
2021/09/26 11:28:36;;;;;;;8.63;2.10;;;;;;;18.77;49.28;146870.97;1853414;77;22166;-66
2021/09/26 11:31:39;;;;;;;12.80;2.60;;;;;;;18.69;49.92;146849.47;1853650;77;22127;-67
2021/09/26 11:34:41;;;;;;;9.38;2.85;;;;;;;18.73;50.16;146860.84;1853603;77;22147;-60
2021/09/26 11:37:42;;;;;;;11.15;3.10;;;;;;;18.90;50.14;146901.25;1834956;77;22144;-57
2021/09/26 11:40:29;;;;;;;8.00;2.17;;;;;;;19.04;49.88;146937.88;1835005;77;22157;-72
2021/09/26 11:43:27;;;;;;;11.48;2.60;;;;;;;19.13;48.30;146958.06;1834979;77;22136;-67
2021/09/26 11:46:16;;;;;;;8.38;1.82;;;;;;;19.14;48.56;146961.88;1835088;77;22159;-67
2021/09/26 11:48:53;;;;;;;12.18;2.17;;;;;;;19.18;48.68;146971.94;1835052;77;22573;-58
2021/09/26 11:51:30;;;;;;;9.00;2.08;;;;;;;19.11;46.92;146954.30;1853729;77;22123;-63
2021/09/26 11:54:07;;;;;;;11.38;2.65;;;;;;;18.94;47.97;146912.63;1835076;77;22575;-64
2021/09/26 11:56:43;;;;;;;6.55;2.12;;;;;;;18.74;48.29;146863.34;1834871;77;22582;-69
2021/09/26 11:59:41;;;;;;;6.83;2.42;;;;;;;18.69;48.23;146850.73;1853645;77;22135;-66
2021/09/26 12:02:34;;;;;;;8.70;2.50;;;;;;;18.70;47.03;146853.28;1853601;77;22131;-65
2021/09/26 12:05:09;;;;;;;7.90;2.40;;;;;;;18.64;47.24;146839.36;1835086;77;22550;-60
2021/09/26 12:08:09;;;;;;;8.15;2.08;;;;;;;18.68;46.63;146846.97;1834184;77;22590;-59
2021/09/26 12:10:45;;;;;;;7.10;2.00;;;;;;;18.64;46.28;146838.11;1854221;77;22131;-59
2021/09/26 12:13:26;;;;;;;9.58;2.10;;;;;;;18.67;47.70;146845.67;1854401;77;22131;-56
2021/09/26 12:16:06;;;;;;;8.60;2.20;;;;;;;18.78;46.98;146873.52;1835955;77;22148;-57
2021/09/26 12:18:59;;;;;;;5.20;1.70;;;;;;;18.87;47.07;146896.20;1835755;77;22278;-57
2021/09/26 12:21:35;;;;;;;6.70;2.15;;;;;;;19.09;46.49;146949.25;1835887;77;22120;-58
2021/09/26 12:24:54;;;;;;;4.37;1.80;;;;;;;19.38;46.20;147021.19;1835796;77;22128;-56
2021/09/26 12:27:40;;;;;;;6.12;1.85;;;;;;;19.50;45.10;147050.25;1835170;77;22157;-67
2021/09/26 12:30:41;;;;;;;9.88;2.27;;;;;;;19.43;45.17;147033.81;1835093;77;22132;-69
2021/09/26 12:33:45;;;;;;;5.65;1.80;;;;;;;19.38;45.40;147021.19;1813073;77;22225;-69
2021/09/26 12:36:23;;;;;;;8.25;2.37;;;;;;;19.38;44.98;147019.94;1807209;77;22641;-68
2021/09/26 12:38:59;;;;;;;5.97;1.90;;;;;;;19.26;45.29;146992.17;1853572;77;22131;-65
2021/09/26 12:41:56;;;;;;;7.37;2.00;;;;;;;19.17;45.31;146969.44;1837761;77;22212;-72
2021/09/26 12:44:48;;;;;;;6.78;2.22;;;;;;;19.12;45.42;146956.81;1835021;77;22128;-68
2021/09/26 12:47:42;;;;;;;10.15;2.42;;;;;;;19.11;45.61;146954.30;1834928;77;22136;-70
2021/09/26 12:50:41;;;;;;;8.95;1.80;;;;;;;19.13;45.43;146959.31;1834974;77;22603;-64
2021/09/26 12:53:43;;;;;;;6.58;1.45;;;;;;;19.07;45.48;146945.44;1853436;77;22188;-65